createdAt,value
2023-02-19T00:01:53.189Z,6.20
2023-02-19T00:10:16.217Z,6.20
2023-02-19T00:18:39.609Z,6.50
2023-02-19T00:27:02.397Z,5.90
2023-02-19T00:35:25.505Z,5.50
2023-02-19T00:43:53.206Z,5.70
2023-02-19T00:52:17.558Z,4.70
2023-02-19T01:00:40.445Z,4.20
2023-02-19T01:09:05.372Z,3.70
2023-02-19T01:17:28.362Z,3.50
2023-02-19T01:25:51.220Z,2.90
2023-02-19T01:34:14.054Z,2.80
2023-02-19T01:42:43.804Z,4.60
2023-02-19T01:51:11.822Z,3.60
2023-02-19T01:59:35.058Z,3.50
2023-02-19T02:08:18.927Z,3.30
2023-02-19T02:16:58.353Z,4.10
2023-02-19T02:25:24.310Z,4.00
2023-02-19T02:33:56.355Z,3.90
2023-02-19T02:42:28.357Z,3.10
2023-02-19T02:51:06.052Z,3.20
2023-02-19T02:59:38.259Z,3.60
2023-02-19T03:08:14.132Z,12.80
2023-02-19T03:16:59.291Z,3.00
2023-02-19T03:25:45.927Z,3.20
2023-02-19T03:34:17.299Z,3.00
2023-02-19T03:43:11.367Z,3.70
2023-02-19T03:51:45.080Z,2.40
2023-02-19T04:00:14.178Z,2.60
2023-02-19T04:08:40.952Z,2.00
2023-02-19T04:17:08.801Z,1.90
2023-02-19T04:25:33.399Z,1.80
2023-02-19T04:33:57.079Z,1.40
2023-02-19T04:42:19.958Z,2.10
2023-02-19T04:50:42.945Z,1.10
2023-02-19T04:59:05.938Z,1.70
2023-02-19T05:07:28.849Z,1.00
2023-02-19T05:16:03.397Z,1.10
2023-02-19T05:24:27.661Z,1.30
2023-02-19T05:32:50.533Z,1.20
2023-02-19T05:41:17.269Z,1.10
2023-02-19T05:49:40.200Z,1.50
2023-02-19T05:58:03.557Z,1.70
2023-02-19T06:06:27.442Z,1.80
2023-02-19T06:14:51.201Z,1.40
2023-02-19T06:23:14.115Z,1.90
2023-02-19T06:31:37.037Z,1.90
2023-02-19T06:40:00.006Z,3.10
2023-02-19T06:48:22.898Z,1.70
2023-02-19T06:56:47.149Z,2.60
2023-02-19T07:05:10.117Z,3.40
2023-02-19T07:13:33.060Z,3.30
2023-02-19T07:21:55.912Z,3.20
2023-02-19T07:30:18.897Z,3.50
2023-02-19T07:38:41.733Z,5.10
2023-02-19T07:47:04.628Z,3.80
2023-02-19T07:55:27.612Z,3.10
2023-02-19T08:03:50.649Z,3.80
2023-02-19T08:12:32.358Z,2.70
2023-02-19T08:20:57.571Z,3.00
2023-02-19T08:29:20.406Z,3.10
2023-02-19T08:37:43.251Z,3.70
2023-02-19T08:46:08.072Z,3.50
2023-02-19T08:54:30.905Z,3.90
2023-02-19T09:02:53.862Z,2.90
2023-02-19T09:11:16.824Z,3.20
2023-02-19T09:19:39.765Z,3.00
2023-02-19T09:28:02.598Z,5.70
2023-02-19T09:36:25.486Z,3.20
2023-02-19T09:44:51.176Z,8.30
2023-02-19T09:53:25.593Z,3.40
2023-02-19T10:01:52.119Z,4.30
2023-02-19T10:10:14.981Z,4.00
2023-02-19T10:18:42.704Z,4.70
2023-02-19T10:27:11.726Z,5.00
2023-02-19T10:35:37.478Z,4.70
2023-02-19T10:44:21.578Z,5.30
2023-02-19T10:52:44.423Z,5.80
2023-02-19T11:01:23.968Z,5.00
2023-02-19T11:09:53.840Z,12.40
2023-02-19T11:18:35.067Z,5.20
2023-02-19T11:26:59.584Z,9.20
2023-02-19T11:35:25.338Z,11.30
2023-02-19T11:44:19.660Z,18.20
2023-02-19T11:52:56.195Z,6.20
2023-02-19T12:01:37.149Z,6.40
2023-02-19T12:10:02.997Z,3.80
2023-02-19T12:18:25.812Z,4.20
2023-02-19T12:27:20.150Z,6.50
2023-02-19T12:35:55.987Z,6.00
2023-02-19T12:44:28.096Z,6.90
2023-02-19T12:52:57.214Z,4.90
2023-02-19T13:01:31.031Z,4.90
2023-02-19T13:09:59.266Z,7.20
2023-02-19T13:18:54.205Z,6.80
2023-02-19T13:27:41.294Z,7.10
2023-02-19T13:36:12.734Z,8.50
2023-02-19T13:44:38.714Z,5.20
2023-02-19T13:53:22.368Z,5.10
2023-02-19T14:01:53.980Z,4.50
2023-02-19T14:10:42.046Z,4.80
2023-02-19T14:19:14.528Z,5.10
2023-02-19T14:27:38.342Z,4.70
2023-02-19T14:36:14.125Z,5.50
2023-02-19T14:44:49.060Z,7.30
2023-02-19T14:53:16.061Z,5.70
2023-02-19T15:01:39.319Z,7.50
2023-02-19T15:10:05.848Z,6.70
2023-02-19T15:18:30.189Z,6.90
2023-02-19T15:26:54.842Z,7.70
2023-02-19T15:35:20.003Z,4.60
2023-02-19T15:44:29.442Z,7.20
2023-02-19T15:53:04.063Z,7.90
2023-02-19T16:01:29.677Z,5.20
2023-02-19T16:10:20.939Z,5.00
2023-02-19T16:18:49.198Z,8.60
2023-02-19T16:27:14.229Z,6.80
2023-02-19T16:35:42.824Z,8.10
2023-02-19T16:44:25.907Z,7.70
2023-02-19T16:52:55.982Z,21.20
2023-02-19T17:01:19.581Z,10.80
2023-02-19T17:09:42.921Z,9.10
2023-02-19T17:18:05.962Z,5.30
2023-02-19T17:26:30.992Z,73.80
2023-02-19T17:34:53.828Z,37.00
2023-02-19T17:43:16.816Z,51.40
2023-02-19T17:51:39.652Z,45.60
2023-02-19T18:00:02.704Z,47.50
2023-02-19T18:08:35.921Z,16.60
2023-02-19T18:16:58.927Z,22.30
2023-02-19T18:25:23.037Z,6.10
2023-02-19T18:33:45.938Z,7.30
2023-02-19T18:42:08.741Z,12.30
2023-02-19T18:50:33.450Z,4.40
2023-02-19T18:58:57.609Z,5.30
2023-02-19T19:07:20.870Z,5.60
2023-02-19T19:15:45.160Z,4.20
2023-02-19T19:24:08.977Z,5.40
2023-02-19T19:32:31.754Z,3.90
2023-02-19T19:40:54.819Z,4.50
2023-02-19T19:49:19.571Z,3.80
2023-02-19T19:57:42.536Z,3.50
2023-02-19T20:06:05.581Z,3.50
2023-02-19T20:14:28.658Z,4.30
2023-02-19T20:22:52.079Z,3.70
2023-02-19T20:31:15.174Z,5.60
2023-02-19T20:39:38.260Z,4.70
2023-02-19T20:48:01.424Z,4.40
2023-02-19T20:56:24.385Z,3.80
2023-02-19T21:04:48.377Z,5.20
2023-02-19T21:13:11.596Z,3.50
2023-02-19T21:21:35.520Z,3.50
2023-02-19T21:29:58.372Z,3.90
2023-02-19T21:38:21.146Z,3.60
2023-02-19T21:46:44.079Z,2.90
2023-02-19T21:55:06.949Z,2.50
2023-02-19T22:03:29.857Z,5.90
2023-02-19T22:11:52.814Z,3.60
2023-02-19T22:20:17.330Z,5.70
2023-02-19T22:28:40.154Z,5.10
2023-02-19T22:37:03.041Z,3.00
2023-02-19T22:45:26.367Z,2.60
2023-02-19T22:53:51.699Z,3.20
2023-02-19T23:02:14.567Z,2.20
2023-02-19T23:10:37.693Z,2.30
2023-02-19T23:19:00.518Z,2.70
2023-02-19T23:27:24.350Z,2.20
2023-02-19T23:35:47.510Z,3.40
2023-02-19T23:44:10.364Z,2.00
2023-02-19T23:52:33.178Z,2.50
